sensor_id;sensor_type;location;lat;lon;timestamp;P1;durP1;ratioP1;P2;durP2;ratioP2
26820;SDS011;37186;51.394;5.454;2023-09-07T00:02:54;5.22;;;5.13;;
26820;SDS011;37186;51.394;5.454;2023-09-07T00:05:54;5.00;;;4.90;;
26820;SDS011;37186;51.394;5.454;2023-09-07T00:08:55;4.93;;;4.82;;
26820;SDS011;37186;51.394;5.454;2023-09-07T00:11:56;4.95;;;4.85;;
26820;SDS011;37186;51.394;5.454;2023-09-07T00:14:57;5.00;;;4.90;;
26820;SDS011;37186;51.394;5.454;2023-09-07T00:17:58;5.13;;;5.03;;
26820;SDS011;37186;51.394;5.454;2023-09-07T00:20:59;4.90;;;4.80;;
26820;SDS011;37186;51.394;5.454;2023-09-07T00:24:00;4.88;;;4.78;;
26820;SDS011;37186;51.394;5.454;2023-09-07T00:27:05;4.85;;;4.75;;
26820;SDS011;37186;51.394;5.454;2023-09-07T00:30:08;4.55;;;4.45;;
26820;SDS011;37186;51.394;5.454;2023-09-07T00:33:09;4.55;;;4.45;;
26820;SDS011;37186;51.394;5.454;2023-09-07T00:36:10;4.75;;;4.65;;
26820;SDS011;37186;51.394;5.454;2023-09-07T00:39:11;4.88;;;4.78;;
26820;SDS011;37186;51.394;5.454;2023-09-07T00:42:11;5.13;;;5.03;;
26820;SDS011;37186;51.394;5.454;2023-09-07T00:45:12;5.80;;;5.65;;
26820;SDS011;37186;51.394;5.454;2023-09-07T00:48:14;5.47;;;5.38;;
26820;SDS011;37186;51.394;5.454;2023-09-07T00:51:16;5.38;;;5.28;;
26820;SDS011;37186;51.394;5.454;2023-09-07T00:54:17;5.47;;;5.38;;
26820;SDS011;37186;51.394;5.454;2023-09-07T00:57:19;5.20;;;5.10;;
26820;SDS011;37186;51.394;5.454;2023-09-07T01:00:19;5.28;;;5.18;;
26820;SDS011;37186;51.394;5.454;2023-09-07T01:03:20;5.13;;;5.03;;
26820;SDS011;37186;51.394;5.454;2023-09-07T01:06:32;5.15;;;5.05;;
26820;SDS011;37186;51.394;5.454;2023-09-07T01:09:38;4.85;;;4.75;;
26820;SDS011;37186;51.394;5.454;2023-09-07T01:12:42;5.00;;;4.90;;
26820;SDS011;37186;51.394;5.454;2023-09-07T01:15:42;4.93;;;4.82;;
26820;SDS011;37186;51.394;5.454;2023-09-07T01:18:43;4.70;;;4.60;;
26820;SDS011;37186;51.394;5.454;2023-09-07T01:21:44;4.75;;;4.65;;
26820;SDS011;37186;51.394;5.454;2023-09-07T01:24:46;4.90;;;4.80;;
26820;SDS011;37186;51.394;5.454;2023-09-07T01:27:47;4.93;;;4.82;;
26820;SDS011;37186;51.394;5.454;2023-09-07T01:30:50;4.95;;;4.85;;
26820;SDS011;37186;51.394;5.454;2023-09-07T01:33:52;4.85;;;4.75;;
26820;SDS011;37186;51.394;5.454;2023-09-07T01:36:52;4.85;;;4.75;;
26820;SDS011;37186;51.394;5.454;2023-09-07T01:39:53;4.85;;;4.75;;
26820;SDS011;37186;51.394;5.454;2023-09-07T01:42:53;4.45;;;4.35;;
26820;SDS011;37186;51.394;5.454;2023-09-07T01:45:54;4.95;;;4.85;;
26820;SDS011;37186;51.394;5.454;2023-09-07T01:48:54;4.90;;;4.80;;
26820;SDS011;37186;51.394;5.454;2023-09-07T01:51:55;4.90;;;4.80;;
26820;SDS011;37186;51.394;5.454;2023-09-07T01:54:55;5.00;;;4.90;;
26820;SDS011;37186;51.394;5.454;2023-09-07T01:57:56;4.85;;;4.75;;
26820;SDS011;37186;51.394;5.454;2023-09-07T02:00:57;4.90;;;4.80;;
26820;SDS011;37186;51.394;5.454;2023-09-07T02:03:58;5.28;;;5.18;;
26820;SDS011;37186;51.394;5.454;2023-09-07T02:06:59;5.05;;;4.95;;
26820;SDS011;37186;51.394;5.454;2023-09-07T02:10:00;4.93;;;4.82;;
26820;SDS011;37186;51.394;5.454;2023-09-07T02:13:03;5.05;;;4.95;;
26820;SDS011;37186;51.394;5.454;2023-09-07T02:16:04;4.75;;;4.65;;
26820;SDS011;37186;51.394;5.454;2023-09-07T02:19:05;4.88;;;4.78;;
26820;SDS011;37186;51.394;5.454;2023-09-07T02:22:06;4.85;;;4.75;;
26820;SDS011;37186;51.394;5.454;2023-09-07T02:25:07;4.72;;;4.63;;
26820;SDS011;37186;51.394;5.454;2023-09-07T02:28:08;4.65;;;4.55;;
26820;SDS011;37186;51.394;5.454;2023-09-07T02:31:08;4.72;;;4.63;;
26820;SDS011;37186;51.394;5.454;2023-09-07T02:34:09;4.53;;;4.43;;
26820;SDS011;37186;51.394;5.454;2023-09-07T02:37:09;4.57;;;4.47;;
26820;SDS011;37186;51.394;5.454;2023-09-07T02:40:10;4.45;;;4.35;;
26820;SDS011;37186;51.394;5.454;2023-09-07T02:43:11;4.13;;;4.03;;
26820;SDS011;37186;51.394;5.454;2023-09-07T02:46:12;4.38;;;4.28;;
26820;SDS011;37186;51.394;5.454;2023-09-07T02:49:13;4.47;;;4.38;;
26820;SDS011;37186;51.394;5.454;2023-09-07T02:52:13;4.53;;;4.43;;
26820;SDS011;37186;51.394;5.454;2023-09-07T02:55:14;4.35;;;4.25;;
26820;SDS011;37186;51.394;5.454;2023-09-07T02:58:15;4.20;;;4.10;;
26820;SDS011;37186;51.394;5.454;2023-09-07T03:01:16;4.28;;;4.18;;
26820;SDS011;37186;51.394;5.454;2023-09-07T03:04:19;4.18;;;4.07;;
26820;SDS011;37186;51.394;5.454;2023-09-07T03:07:19;3.97;;;3.88;;
26820;SDS011;37186;51.394;5.454;2023-09-07T03:10:20;3.97;;;3.88;;
26820;SDS011;37186;51.394;5.454;2023-09-07T03:13:21;3.83;;;3.72;;
26820;SDS011;37186;51.394;5.454;2023-09-07T03:16:21;3.67;;;3.58;;
26820;SDS011;37186;51.394;5.454;2023-09-07T03:19:22;3.80;;;3.70;;
26820;SDS011;37186;51.394;5.454;2023-09-07T03:22:22;3.75;;;3.65;;
26820;SDS011;37186;51.394;5.454;2023-09-07T03:25:23;3.92;;;3.83;;
26820;SDS011;37186;51.394;5.454;2023-09-07T03:28:24;3.80;;;3.70;;
26820;SDS011;37186;51.394;5.454;2023-09-07T03:31:27;3.75;;;3.65;;
26820;SDS011;37186;51.394;5.454;2023-09-07T03:34:28;3.55;;;3.45;;
26820;SDS011;37186;51.394;5.454;2023-09-07T03:37:29;3.58;;;3.47;;
26820;SDS011;37186;51.394;5.454;2023-09-07T03:40:29;3.45;;;3.35;;
26820;SDS011;37186;51.394;5.454;2023-09-07T03:43:30;3.50;;;3.40;;
26820;SDS011;37186;51.394;5.454;2023-09-07T03:46:31;3.45;;;3.35;;
26820;SDS011;37186;51.394;5.454;2023-09-07T03:49:31;3.53;;;3.42;;
26820;SDS011;37186;51.394;5.454;2023-09-07T03:52:32;3.55;;;3.45;;
26820;SDS011;37186;51.394;5.454;2023-09-07T03:55:42;3.40;;;3.30;;
26820;SDS011;37186;51.394;5.454;2023-09-07T03:58:44;3.30;;;3.20;;
26820;SDS011;37186;51.394;5.454;2023-09-07T04:01:47;3.47;;;3.38;;
26820;SDS011;37186;51.394;5.454;2023-09-07T04:04:50;3.33;;;3.22;;
26820;SDS011;37186;51.394;5.454;2023-09-07T04:07:52;3.25;;;3.15;;
26820;SDS011;37186;51.394;5.454;2023-09-07T04:10:52;3.22;;;3.13;;
26820;SDS011;37186;51.394;5.454;2023-09-07T04:13:53;3.28;;;3.17;;
26820;SDS011;37186;51.394;5.454;2023-09-07T04:16:53;3.17;;;3.08;;
26820;SDS011;37186;51.394;5.454;2023-09-07T04:19:54;3.03;;;2.92;;
26820;SDS011;37186;51.394;5.454;2023-09-07T04:22:56;3.20;;;3.10;;
26820;SDS011;37186;51.394;5.454;2023-09-07T04:26:09;3.33;;;3.22;;
26820;SDS011;37186;51.394;5.454;2023-09-07T04:29:11;3.03;;;2.92;;
26820;SDS011;37186;51.394;5.454;2023-09-07T04:32:15;2.97;;;2.88;;
26820;SDS011;37186;51.394;5.454;2023-09-07T04:35:16;3.03;;;2.92;;
26820;SDS011;37186;51.394;5.454;2023-09-07T04:38:16;2.97;;;2.88;;
26820;SDS011;37186;51.394;5.454;2023-09-07T04:41:17;3.08;;;2.97;;
26820;SDS011;37186;51.394;5.454;2023-09-07T04:44:17;3.10;;;3.00;;
26820;SDS011;37186;51.394;5.454;2023-09-07T04:47:18;2.75;;;2.70;;
26820;SDS011;37186;51.394;5.454;2023-09-07T04:50:19;2.88;;;2.80;;
26820;SDS011;37186;51.394;5.454;2023-09-07T04:53:19;2.60;;;2.60;;
26820;SDS011;37186;51.394;5.454;2023-09-07T04:56:20;2.70;;;2.70;;
26820;SDS011;37186;51.394;5.454;2023-09-07T04:59:22;2.90;;;2.80;;
26820;SDS011;37186;51.394;5.454;2023-09-07T05:02:22;2.80;;;2.70;;
26820;SDS011;37186;51.394;5.454;2023-09-07T05:05:23;2.60;;;2.60;;
26820;SDS011;37186;51.394;5.454;2023-09-07T05:08:23;2.50;;;2.50;;
26820;SDS011;37186;51.394;5.454;2023-09-07T05:11:27;2.60;;;2.60;;
26820;SDS011;37186;51.394;5.454;2023-09-07T05:14:27;2.72;;;2.70;;
26820;SDS011;37186;51.394;5.454;2023-09-07T05:17:29;2.60;;;2.60;;
26820;SDS011;37186;51.394;5.454;2023-09-07T05:20:30;2.50;;;2.50;;
26820;SDS011;37186;51.394;5.454;2023-09-07T05:23:31;2.63;;;2.63;;
26820;SDS011;37186;51.394;5.454;2023-09-07T05:26:31;2.50;;;2.50;;
26820;SDS011;37186;51.394;5.454;2023-09-07T05:29:32;2.60;;;2.60;;
26820;SDS011;37186;51.394;5.454;2023-09-07T05:32:32;2.60;;;2.60;;
26820;SDS011;37186;51.394;5.454;2023-09-07T05:35:33;2.50;;;2.50;;
26820;SDS011;37186;51.394;5.454;2023-09-07T05:38:34;2.55;;;2.55;;
26820;SDS011;37186;51.394;5.454;2023-09-07T05:41:34;2.50;;;2.50;;
26820;SDS011;37186;51.394;5.454;2023-09-07T05:44:35;2.55;;;2.55;;
26820;SDS011;37186;51.394;5.454;2023-09-07T05:47:35;2.40;;;2.40;;
26820;SDS011;37186;51.394;5.454;2023-09-07T05:50:36;2.60;;;2.60;;
26820;SDS011;37186;51.394;5.454;2023-09-07T05:53:38;2.60;;;2.60;;
26820;SDS011;37186;51.394;5.454;2023-09-07T05:56:39;2.40;;;2.40;;
26820;SDS011;37186;51.394;5.454;2023-09-07T05:59:40;2.50;;;2.50;;
26820;SDS011;37186;51.394;5.454;2023-09-07T06:02:40;2.50;;;2.50;;
26820;SDS011;37186;51.394;5.454;2023-09-07T06:05:41;2.53;;;2.53;;
26820;SDS011;37186;51.394;5.454;2023-09-07T06:08:41;2.60;;;2.60;;
26820;SDS011;37186;51.394;5.454;2023-09-07T06:11:42;2.47;;;2.47;;
26820;SDS011;37186;51.394;5.454;2023-09-07T06:14:43;2.53;;;2.53;;
26820;SDS011;37186;51.394;5.454;2023-09-07T06:17:45;2.60;;;2.60;;
26820;SDS011;37186;51.394;5.454;2023-09-07T06:20:45;2.70;;;2.60;;
26820;SDS011;37186;51.394;5.454;2023-09-07T06:23:46;2.80;;;2.70;;
26820;SDS011;37186;51.394;5.454;2023-09-07T06:26:47;2.80;;;2.70;;
26820;SDS011;37186;51.394;5.454;2023-09-07T06:29:48;2.65;;;2.65;;
26820;SDS011;37186;51.394;5.454;2023-09-07T06:32:49;2.70;;;2.70;;
26820;SDS011;37186;51.394;5.454;2023-09-07T06:35:51;2.78;;;2.67;;
26820;SDS011;37186;51.394;5.454;2023-09-07T06:38:51;2.55;;;2.55;;
26820;SDS011;37186;51.394;5.454;2023-09-07T06:41:52;2.78;;;2.70;;
26820;SDS011;37186;51.394;5.454;2023-09-07T06:44:52;2.90;;;2.80;;
26820;SDS011;37186;51.394;5.454;2023-09-07T06:47:53;2.90;;;2.80;;
26820;SDS011;37186;51.394;5.454;2023-09-07T06:50:54;2.70;;;2.70;;
26820;SDS011;37186;51.394;5.454;2023-09-07T06:53:54;3.00;;;2.90;;
26820;SDS011;37186;51.394;5.454;2023-09-07T06:56:55;2.90;;;2.80;;
26820;SDS011;37186;51.394;5.454;2023-09-07T06:59:55;2.88;;;2.78;;
26820;SDS011;37186;51.394;5.454;2023-09-07T07:02:56;2.83;;;2.72;;
26820;SDS011;37186;51.394;5.454;2023-09-07T07:05:58;3.00;;;2.90;;
26820;SDS011;37186;51.394;5.454;2023-09-07T07:08:59;2.90;;;2.80;;
26820;SDS011;37186;51.394;5.454;2023-09-07T07:11:59;2.80;;;2.70;;
26820;SDS011;37186;51.394;5.454;2023-09-07T07:15:03;2.95;;;2.85;;
26820;SDS011;37186;51.394;5.454;2023-09-07T07:18:04;2.75;;;2.72;;
26820;SDS011;37186;51.394;5.454;2023-09-07T07:21:08;3.05;;;2.95;;
26820;SDS011;37186;51.394;5.454;2023-09-07T07:24:09;3.03;;;2.92;;
26820;SDS011;37186;51.394;5.454;2023-09-07T07:27:09;2.92;;;2.83;;
26820;SDS011;37186;51.394;5.454;2023-09-07T07:30:10;3.05;;;2.95;;
26820;SDS011;37186;51.394;5.454;2023-09-07T07:33:11;3.10;;;3.00;;
26820;SDS011;37186;51.394;5.454;2023-09-07T07:36:12;3.17;;;3.08;;
26820;SDS011;37186;51.394;5.454;2023-09-07T07:39:12;2.85;;;2.75;;
26820;SDS011;37186;51.394;5.454;2023-09-07T07:42:13;2.97;;;2.88;;
26820;SDS011;37186;51.394;5.454;2023-09-07T07:45:14;2.88;;;2.78;;
26820;SDS011;37186;51.394;5.454;2023-09-07T07:48:14;3.03;;;2.92;;
26820;SDS011;37186;51.394;5.454;2023-09-07T07:51:15;3.25;;;3.15;;
26820;SDS011;37186;51.394;5.454;2023-09-07T07:54:16;3.35;;;3.25;;
26820;SDS011;37186;51.394;5.454;2023-09-07T07:57:16;3.45;;;3.35;;
26820;SDS011;37186;51.394;5.454;2023-09-07T08:00:17;3.75;;;3.65;;
26820;SDS011;37186;51.394;5.454;2023-09-07T08:03:18;3.90;;;3.80;;
26820;SDS011;37186;51.394;5.454;2023-09-07T08:06:19;4.07;;;3.97;;
26820;SDS011;37186;51.394;5.454;2023-09-07T08:09:19;4.10;;;4.00;;
26820;SDS011;37186;51.394;5.454;2023-09-07T08:12:21;3.67;;;3.58;;
26820;SDS011;37186;51.394;5.454;2023-09-07T08:15:22;4.53;;;4.43;;
26820;SDS011;37186;51.394;5.454;2023-09-07T08:18:24;4.20;;;4.10;;
26820;SDS011;37186;51.394;5.454;2023-09-07T08:21:25;4.22;;;4.13;;
26820;SDS011;37186;51.394;5.454;2023-09-07T08:24:26;4.00;;;3.90;;
26820;SDS011;37186;51.394;5.454;2023-09-07T08:27:26;4.05;;;3.95;;
26820;SDS011;37186;51.394;5.454;2023-09-07T08:30:27;3.97;;;3.88;;
26820;SDS011;37186;51.394;5.454;2023-09-07T08:33:27;4.00;;;3.90;;
26820;SDS011;37186;51.394;5.454;2023-09-07T08:36:29;4.25;;;4.15;;
26820;SDS011;37186;51.394;5.454;2023-09-07T08:39:32;3.92;;;3.83;;
26820;SDS011;37186;51.394;5.454;2023-09-07T08:42:38;4.35;;;4.25;;
26820;SDS011;37186;51.394;5.454;2023-09-07T08:45:45;4.10;;;4.00;;
26820;SDS011;37186;51.394;5.454;2023-09-07T08:48:49;3.90;;;3.80;;
26820;SDS011;37186;51.394;5.454;2023-09-07T08:51:50;3.90;;;3.80;;
26820;SDS011;37186;51.394;5.454;2023-09-07T08:54:52;4.20;;;4.10;;
26820;SDS011;37186;51.394;5.454;2023-09-07T08:57:54;3.95;;;3.85;;
26820;SDS011;37186;51.394;5.454;2023-09-07T09:00:54;3.90;;;3.80;;
26820;SDS011;37186;51.394;5.454;2023-09-07T09:03:57;3.90;;;3.80;;
26820;SDS011;37186;51.394;5.454;2023-09-07T09:06:58;3.95;;;3.85;;
26820;SDS011;37186;51.394;5.454;2023-09-07T09:10:05;4.18;;;4.07;;
26820;SDS011;37186;51.394;5.454;2023-09-07T09:13:07;3.97;;;3.88;;
26820;SDS011;37186;51.394;5.454;2023-09-07T09:16:08;4.15;;;4.05;;
26820;SDS011;37186;51.394;5.454;2023-09-07T09:19:09;4.25;;;4.15;;
26820;SDS011;37186;51.394;5.454;2023-09-07T09:22:10;4.10;;;4.00;;
26820;SDS011;37186;51.394;5.454;2023-09-07T09:25:12;3.58;;;3.47;;
26820;SDS011;37186;51.394;5.454;2023-09-07T09:28:12;3.65;;;3.55;;
26820;SDS011;37186;51.394;5.454;2023-09-07T09:31:14;3.72;;;3.63;;
26820;SDS011;37186;51.394;5.454;2023-09-07T09:34:14;3.83;;;3.72;;
26820;SDS011;37186;51.394;5.454;2023-09-07T09:37:15;3.78;;;3.67;;
26820;SDS011;37186;51.394;5.454;2023-09-07T09:40:16;3.90;;;3.80;;
26820;SDS011;37186;51.394;5.454;2023-09-07T09:43:19;3.88;;;3.78;;
26820;SDS011;37186;51.394;5.454;2023-09-07T09:46:20;4.13;;;4.03;;
26820;SDS011;37186;51.394;5.454;2023-09-07T09:49:22;4.03;;;3.92;;
26820;SDS011;37186;51.394;5.454;2023-09-07T09:52:23;4.35;;;4.25;;
26820;SDS011;37186;51.394;5.454;2023-09-07T09:55:25;4.25;;;4.15;;
26820;SDS011;37186;51.394;5.454;2023-09-07T09:58:26;4.22;;;4.13;;
26820;SDS011;37186;51.394;5.454;2023-09-07T10:01:27;4.40;;;4.30;;
26820;SDS011;37186;51.394;5.454;2023-09-07T10:04:29;4.32;;;4.22;;
26820;SDS011;37186;51.394;5.454;2023-09-07T10:07:43;4.05;;;3.95;;
26820;SDS011;37186;51.394;5.454;2023-09-07T10:10:46;4.15;;;4.05;;
26820;SDS011;37186;51.394;5.454;2023-09-07T10:13:56;5.05;;;4.95;;
26820;SDS011;37186;51.394;5.454;2023-09-07T10:16:57;4.93;;;4.82;;
26820;SDS011;37186;51.394;5.454;2023-09-07T10:20:04;4.70;;;4.60;;
26820;SDS011;37186;51.394;5.454;2023-09-07T10:23:08;4.53;;;4.43;;
26820;SDS011;37186;51.394;5.454;2023-09-07T10:26:13;4.47;;;4.38;;
26820;SDS011;37186;51.394;5.454;2023-09-07T10:29:15;4.25;;;4.15;;
26820;SDS011;37186;51.394;5.454;2023-09-07T10:32:15;4.30;;;4.20;;
26820;SDS011;37186;51.394;5.454;2023-09-07T10:35:18;4.32;;;4.22;;
26820;SDS011;37186;51.394;5.454;2023-09-07T10:38:22;4.43;;;4.32;;
26820;SDS011;37186;51.394;5.454;2023-09-07T10:41:23;4.30;;;4.20;;
26820;SDS011;37186;51.394;5.454;2023-09-07T10:44:27;4.28;;;4.18;;
26820;SDS011;37186;51.394;5.454;2023-09-07T10:47:28;4.00;;;3.90;;
26820;SDS011;37186;51.394;5.454;2023-09-07T10:50:28;4.00;;;3.90;;
26820;SDS011;37186;51.394;5.454;2023-09-07T10:53:30;4.10;;;4.00;;
26820;SDS011;37186;51.394;5.454;2023-09-07T10:56:32;3.90;;;3.80;;
26820;SDS011;37186;51.394;5.454;2023-09-07T10:59:32;3.47;;;3.38;;
26820;SDS011;37186;51.394;5.454;2023-09-07T11:02:33;3.55;;;3.45;;
26820;SDS011;37186;51.394;5.454;2023-09-07T11:05:33;3.30;;;3.20;;
26820;SDS011;37186;51.394;5.454;2023-09-07T11:08:36;3.40;;;3.30;;
26820;SDS011;37186;51.394;5.454;2023-09-07T11:11:37;3.30;;;3.20;;
26820;SDS011;37186;51.394;5.454;2023-09-07T11:14:38;3.55;;;3.45;;
26820;SDS011;37186;51.394;5.454;2023-09-07T11:17:39;3.13;;;3.03;;
26820;SDS011;37186;51.394;5.454;2023-09-07T11:20:40;2.88;;;2.78;;
26820;SDS011;37186;51.394;5.454;2023-09-07T11:23:42;3.20;;;3.10;;
26820;SDS011;37186;51.394;5.454;2023-09-07T11:26:44;3.17;;;3.08;;
26820;SDS011;37186;51.394;5.454;2023-09-07T11:29:50;2.92;;;2.83;;
26820;SDS011;37186;51.394;5.454;2023-09-07T11:32:59;3.33;;;3.22;;
26820;SDS011;37186;51.394;5.454;2023-09-07T11:36:07;3.13;;;3.03;;
26820;SDS011;37186;51.394;5.454;2023-09-07T11:39:08;2.95;;;2.85;;
26820;SDS011;37186;51.394;5.454;2023-09-07T11:42:12;2.72;;;2.67;;
26820;SDS011;37186;51.394;5.454;2023-09-07T11:45:12;2.80;;;2.70;;
26820;SDS011;37186;51.394;5.454;2023-09-07T11:48:13;3.25;;;3.15;;
26820;SDS011;37186;51.394;5.454;2023-09-07T11:51:14;3.28;;;3.17;;
26820;SDS011;37186;51.394;5.454;2023-09-07T11:54:15;3.17;;;3.08;;
26820;SDS011;37186;51.394;5.454;2023-09-07T11:57:15;3.10;;;3.00;;
26820;SDS011;37186;51.394;5.454;2023-09-07T12:00:16;3.45;;;3.35;;
26820;SDS011;37186;51.394;5.454;2023-09-07T12:03:17;3.53;;;3.42;;
26820;SDS011;37186;51.394;5.454;2023-09-07T12:06:18;4.03;;;3.92;;
26820;SDS011;37186;51.394;5.454;2023-09-07T12:09:18;4.35;;;4.25;;
26820;SDS011;37186;51.394;5.454;2023-09-07T12:12:19;4.07;;;3.97;;
26820;SDS011;37186;51.394;5.454;2023-09-07T12:15:19;4.82;;;4.72;;
26820;SDS011;37186;51.394;5.454;2023-09-07T12:18:21;6.43;;;6.22;;
26820;SDS011;37186;51.394;5.454;2023-09-07T12:21:22;6.68;;;6.47;;
26820;SDS011;37186;51.394;5.454;2023-09-07T12:24:22;7.60;;;7.40;;
26820;SDS011;37186;51.394;5.454;2023-09-07T12:27:23;7.30;;;7.10;;
26820;SDS011;37186;51.394;5.454;2023-09-07T12:30:23;5.80;;;5.60;;
26820;SDS011;37186;51.394;5.454;2023-09-07T12:33:24;5.93;;;5.72;;
26820;SDS011;37186;51.394;5.454;2023-09-07T12:36:24;5.65;;;5.55;;
26820;SDS011;37186;51.394;5.454;2023-09-07T12:39:28;5.88;;;5.68;;
26820;SDS011;37186;51.394;5.454;2023-09-07T12:42:29;5.18;;;5.07;;
26820;SDS011;37186;51.394;5.454;2023-09-07T12:45:30;5.50;;;5.40;;
26820;SDS011;37186;51.394;5.454;2023-09-07T12:48:30;6.80;;;6.60;;
26820;SDS011;37186;51.394;5.454;2023-09-07T12:51:31;6.32;;;6.13;;
26820;SDS011;37186;51.394;5.454;2023-09-07T12:54:31;6.10;;;5.90;;
26820;SDS011;37186;51.394;5.454;2023-09-07T12:57:32;6.05;;;5.85;;
26820;SDS011;37186;51.394;5.454;2023-09-07T13:00:33;5.43;;;5.32;;
26820;SDS011;37186;51.394;5.454;2023-09-07T13:03:34;4.72;;;4.63;;
26820;SDS011;37186;51.394;5.454;2023-09-07T13:06:34;4.20;;;4.10;;
26820;SDS011;37186;51.394;5.454;2023-09-07T13:09:35;3.90;;;3.80;;
26820;SDS011;37186;51.394;5.454;2023-09-07T13:12:36;3.70;;;3.60;;
26820;SDS011;37186;51.394;5.454;2023-09-07T13:15:36;4.63;;;4.53;;
26820;SDS011;37186;51.394;5.454;2023-09-07T13:18:37;4.55;;;4.45;;
26820;SDS011;37186;51.394;5.454;2023-09-07T13:21:38;5.18;;;5.07;;
26820;SDS011;37186;51.394;5.454;2023-09-07T13:24:38;4.60;;;4.50;;
26820;SDS011;37186;51.394;5.454;2023-09-07T13:27:39;4.85;;;4.75;;
26820;SDS011;37186;51.394;5.454;2023-09-07T13:30:40;4.60;;;4.50;;
26820;SDS011;37186;51.394;5.454;2023-09-07T13:33:40;4.85;;;4.75;;
26820;SDS011;37186;51.394;5.454;2023-09-07T13:36:41;4.57;;;4.47;;
26820;SDS011;37186;51.394;5.454;2023-09-07T13:39:41;4.47;;;4.38;;
26820;SDS011;37186;51.394;5.454;2023-09-07T13:42:42;4.53;;;4.43;;
26820;SDS011;37186;51.394;5.454;2023-09-07T13:45:43;4.47;;;4.38;;
26820;SDS011;37186;51.394;5.454;2023-09-07T13:48:44;4.38;;;4.28;;
26820;SDS011;37186;51.394;5.454;2023-09-07T13:51:45;4.65;;;4.55;;
26820;SDS011;37186;51.394;5.454;2023-09-07T13:54:45;4.60;;;4.50;;
26820;SDS011;37186;51.394;5.454;2023-09-07T13:57:46;4.65;;;4.55;;
26820;SDS011;37186;51.394;5.454;2023-09-07T14:00:47;4.50;;;4.40;;
26820;SDS011;37186;51.394;5.454;2023-09-07T14:03:48;4.57;;;4.47;;
26820;SDS011;37186;51.394;5.454;2023-09-07T14:06:48;4.35;;;4.25;;
26820;SDS011;37186;51.394;5.454;2023-09-07T14:09:49;4.68;;;4.57;;
26820;SDS011;37186;51.394;5.454;2023-09-07T14:12:49;4.53;;;4.43;;
26820;SDS011;37186;51.394;5.454;2023-09-07T14:15:50;4.85;;;4.75;;
26820;SDS011;37186;51.394;5.454;2023-09-07T14:18:51;4.60;;;4.50;;
26820;SDS011;37186;51.394;5.454;2023-09-07T14:21:51;4.38;;;4.28;;
26820;SDS011;37186;51.394;5.454;2023-09-07T14:24:52;4.35;;;4.25;;
26820;SDS011;37186;51.394;5.454;2023-09-07T14:27:52;4.28;;;4.18;;
26820;SDS011;37186;51.394;5.454;2023-09-07T14:30:53;4.25;;;4.15;;
26820;SDS011;37186;51.394;5.454;2023-09-07T14:33:54;4.97;;;4.88;;
26820;SDS011;37186;51.394;5.454;2023-09-07T14:36:55;4.47;;;4.38;;
26820;SDS011;37186;51.394;5.454;2023-09-07T14:39:56;4.45;;;4.35;;
26820;SDS011;37186;51.394;5.454;2023-09-07T14:42:57;4.63;;;4.53;;
26820;SDS011;37186;51.394;5.454;2023-09-07T14:45:58;4.35;;;4.25;;
26820;SDS011;37186;51.394;5.454;2023-09-07T14:48:59;4.72;;;4.63;;
26820;SDS011;37186;51.394;5.454;2023-09-07T14:52:00;4.70;;;4.60;;
26820;SDS011;37186;51.394;5.454;2023-09-07T14:55:01;5.18;;;5.07;;
26820;SDS011;37186;51.394;5.454;2023-09-07T14:58:02;5.15;;;5.05;;
26820;SDS011;37186;51.394;5.454;2023-09-07T15:01:04;5.20;;;5.10;;
26820;SDS011;37186;51.394;5.454;2023-09-07T15:04:05;5.10;;;5.00;;
26820;SDS011;37186;51.394;5.454;2023-09-07T15:07:05;5.45;;;5.35;;
26820;SDS011;37186;51.394;5.454;2023-09-07T15:10:07;5.13;;;5.03;;
26820;SDS011;37186;51.394;5.454;2023-09-07T15:13:07;5.50;;;5.40;;
26820;SDS011;37186;51.394;5.454;2023-09-07T15:16:08;6.18;;;5.97;;
26820;SDS011;37186;51.394;5.454;2023-09-07T15:19:10;5.72;;;5.57;;
26820;SDS011;37186;51.394;5.454;2023-09-07T15:22:11;5.68;;;5.53;;
26820;SDS011;37186;51.394;5.454;2023-09-07T15:25:11;5.50;;;5.40;;
26820;SDS011;37186;51.394;5.454;2023-09-07T15:28:12;6.05;;;5.85;;
26820;SDS011;37186;51.394;5.454;2023-09-07T15:31:13;5.88;;;5.70;;
26820;SDS011;37186;51.394;5.454;2023-09-07T15:34:13;6.05;;;5.85;;
26820;SDS011;37186;51.394;5.454;2023-09-07T15:37:15;7.00;;;6.80;;
26820;SDS011;37186;51.394;5.454;2023-09-07T15:40:15;7.88;;;7.68;;
26820;SDS011;37186;51.394;5.454;2023-09-07T15:43:16;7.18;;;6.97;;
26820;SDS011;37186;51.394;5.454;2023-09-07T15:46:16;9.10;;;8.82;;
26820;SDS011;37186;51.394;5.454;2023-09-07T15:49:17;10.15;;;9.85;;
26820;SDS011;37186;51.394;5.454;2023-09-07T15:52:20;9.93;;;9.63;;
26820;SDS011;37186;51.394;5.454;2023-09-07T15:55:21;8.10;;;7.90;;
26820;SDS011;37186;51.394;5.454;2023-09-07T15:58:22;8.30;;;8.10;;
26820;SDS011;37186;51.394;5.454;2023-09-07T16:01:22;9.98;;;9.68;;
26820;SDS011;37186;51.394;5.454;2023-09-07T16:04:23;6.28;;;6.07;;
26820;SDS011;37186;51.394;5.454;2023-09-07T16:07:23;6.35;;;6.15;;
26820;SDS011;37186;51.394;5.454;2023-09-07T16:10:24;6.90;;;6.70;;
26820;SDS011;37186;51.394;5.454;2023-09-07T16:13:27;3.90;;;3.80;;
26820;SDS011;37186;51.394;5.454;2023-09-07T16:16:28;4.63;;;4.53;;
26820;SDS011;37186;51.394;5.454;2023-09-07T16:19:28;4.35;;;4.25;;
26820;SDS011;37186;51.394;5.454;2023-09-07T16:22:29;4.18;;;4.07;;
26820;SDS011;37186;51.394;5.454;2023-09-07T16:25:30;3.58;;;3.47;;
26820;SDS011;37186;51.394;5.454;2023-09-07T16:28:30;3.85;;;3.75;;
26820;SDS011;37186;51.394;5.454;2023-09-07T16:31:31;4.00;;;3.90;;
26820;SDS011;37186;51.394;5.454;2023-09-07T16:34:31;2.75;;;2.70;;
26820;SDS011;37186;51.394;5.454;2023-09-07T16:37:32;2.60;;;2.60;;
26820;SDS011;37186;51.394;5.454;2023-09-07T16:40:35;3.70;;;3.60;;
26820;SDS011;37186;51.394;5.454;2023-09-07T16:43:37;4.40;;;4.30;;
26820;SDS011;37186;51.394;5.454;2023-09-07T16:46:38;3.50;;;3.40;;
26820;SDS011;37186;51.394;5.454;2023-09-07T16:49:39;3.20;;;3.10;;
26820;SDS011;37186;51.394;5.454;2023-09-07T16:52:39;3.60;;;3.50;;
26820;SDS011;37186;51.394;5.454;2023-09-07T16:55:40;4.15;;;4.05;;
26820;SDS011;37186;51.394;5.454;2023-09-07T16:58:41;3.80;;;3.70;;
26820;SDS011;37186;51.394;5.454;2023-09-07T17:01:42;3.60;;;3.50;;
26820;SDS011;37186;51.394;5.454;2023-09-07T17:04:43;3.70;;;3.60;;
26820;SDS011;37186;51.394;5.454;2023-09-07T17:07:44;3.50;;;3.40;;
26820;SDS011;37186;51.394;5.454;2023-09-07T17:10:44;3.75;;;3.65;;
26820;SDS011;37186;51.394;5.454;2023-09-07T17:13:45;4.57;;;4.47;;
26820;SDS011;37186;51.394;5.454;2023-09-07T17:16:46;5.25;;;5.15;;
26820;SDS011;37186;51.394;5.454;2023-09-07T17:19:46;5.45;;;5.35;;
26820;SDS011;37186;51.394;5.454;2023-09-07T17:22:47;6.35;;;6.15;;
26820;SDS011;37186;51.394;5.454;2023-09-07T17:25:47;6.85;;;6.65;;
26820;SDS011;37186;51.394;5.454;2023-09-07T17:28:48;7.50;;;7.30;;
26820;SDS011;37186;51.394;5.454;2023-09-07T17:31:52;7.97;;;7.78;;
26820;SDS011;37186;51.394;5.454;2023-09-07T17:34:52;7.88;;;7.68;;
26820;SDS011;37186;51.394;5.454;2023-09-07T17:37:53;6.65;;;6.45;;
26820;SDS011;37186;51.394;5.454;2023-09-07T17:40:53;6.60;;;6.40;;
26820;SDS011;37186;51.394;5.454;2023-09-07T17:43:55;7.03;;;6.82;;
26820;SDS011;37186;51.394;5.454;2023-09-07T17:46:55;7.47;;;7.28;;
26820;SDS011;37186;51.394;5.454;2023-09-07T17:49:56;7.60;;;7.40;;
26820;SDS011;37186;51.394;5.454;2023-09-07T17:52:56;7.22;;;7.03;;
26820;SDS011;37186;51.394;5.454;2023-09-07T17:55:57;7.38;;;7.18;;
26820;SDS011;37186;51.394;5.454;2023-09-07T17:58:57;7.78;;;7.57;;
26820;SDS011;37186;51.394;5.454;2023-09-07T18:01:58;7.78;;;7.57;;
26820;SDS011;37186;51.394;5.454;2023-09-07T18:04:58;6.95;;;6.75;;
26820;SDS011;37186;51.394;5.454;2023-09-07T18:07:59;6.75;;;6.55;;
26820;SDS011;37186;51.394;5.454;2023-09-07T18:11:00;7.15;;;6.95;;
26820;SDS011;37186;51.394;5.454;2023-09-07T18:14:00;7.20;;;7.00;;